Time;durP1;ratioP1;P1;durP2;ratioP2;P2;SDS_P1;SDS_P2;PMS_P1;PMS_P2;Temp;Humidity;BMP_temperature;BMP_pressure;BME280_temperature;BME280_humidity;BME280_pressure;Samples;Min_cycle;Max_cycle;Signal;HPM_P1;HPM_P2
2021/11/02 00:02:13;;;;;;;0.40;0.20;;;10.40;99.90;;;;;;5091433;28;20857;-68
2021/11/02 00:04:40;;;;;;;0.40;0.30;;;10.40;99.90;;;;;;5090790;28;20374;-69
2021/11/02 00:07:06;;;;;;;0.40;0.20;;;10.30;99.90;;;;;;5091113;28;20374;-71
2021/11/02 00:09:34;;;;;;;0.40;0.20;;;10.10;99.90;;;;;;5090818;28;20374;-71
2021/11/02 00:12:00;;;;;;;0.40;0.30;;;10.10;99.90;;;;;;5091007;28;20727;-71
2021/11/02 00:14:28;;;;;;;0.40;0.20;;;10.00;99.90;;;;;;5090710;28;20381;-71
2021/11/02 00:17:02;;;;;;;0.40;0.20;;;10.00;99.90;;;;;;5091265;28;20488;-71
2021/11/02 00:19:29;;;;;;;0.40;0.20;;;9.90;99.90;;;;;;5090615;28;20382;-72
2021/11/02 00:21:57;;;;;;;0.40;0.20;;;9.90;99.90;;;;;;5091038;28;20382;-71
2021/11/02 00:27:01;;;;;;;0.40;0.30;;;9.90;99.90;;;;;;5091169;28;20469;-71
2021/11/02 00:29:26;;;;;;;0.40;0.20;;;9.80;99.90;;;;;;5090432;28;20453;-71
2021/11/02 00:31:52;;;;;;;0.40;0.20;;;9.60;99.90;;;;;;5090360;28;20444;-71
2021/11/02 00:34:18;;;;;;;0.40;0.20;;;9.60;99.90;;;;;;5090486;28;20428;-71
2021/11/02 00:36:44;;;;;;;0.40;0.20;;;9.70;99.90;;;;;;5091014;28;20700;-71
2021/11/02 00:39:09;;;;;;;0.40;0.20;;;9.70;99.90;;;;;;5090651;28;20417;-71
2021/11/02 00:41:35;;;;;;;0.40;0.20;;;9.80;99.90;;;;;;5090167;28;20390;-71
2021/11/02 00:44:01;;;;;;;0.40;0.30;;;9.80;99.90;;;;;;5090755;28;20403;-70
2021/11/02 00:46:33;;;;;;;0.40;0.30;;;9.90;99.90;;;;;;5089993;28;20949;-71
2021/11/02 00:48:59;;;;;;;0.40;0.30;;;10.00;99.90;;;;;;5070687;28;20380;-70
2021/11/02 00:51:26;;;;;;;0.40;0.20;;;10.10;99.90;;;;;;5069354;28;20685;-71
2021/11/02 00:53:54;;;;;;;0.40;0.20;;;10.10;99.90;;;;;;5069672;28;21385;-71
2021/11/02 00:56:20;;;;;;;0.40;0.20;;;10.20;99.90;;;;;;5069858;28;20388;-72
2021/11/02 00:58:46;;;;;;;0.40;0.20;;;10.20;99.90;;;;;;5070634;28;20438;-71
2021/11/02 01:01:12;;;;;;;0.40;0.20;;;10.10;99.90;;;;;;5070512;28;20909;-70
2021/11/02 01:03:38;;;;;;;0.40;0.20;;;10.10;99.90;;;;;;5069842;28;20441;-71
2021/11/02 01:06:04;;;;;;;0.40;0.20;;;10.10;99.90;;;;;;5070512;28;20384;-70
2021/11/02 01:08:30;;;;;;;0.40;0.20;;;10.10;99.90;;;;;;5069797;28;20418;-70
2021/11/02 01:10:56;;;;;;;0.40;0.20;;;10.00;99.90;;;;;;5070443;28;20844;-70
2021/11/02 01:13:22;;;;;;;0.40;0.20;;;10.00;99.90;;;;;;5069611;28;20414;-71
2021/11/02 01:15:48;;;;;;;0.40;0.20;;;10.00;99.90;;;;;;5069990;28;20399;-70
2021/11/02 01:18:13;;;;;;;0.40;0.20;;;10.00;99.90;;;;;;5070311;28;20844;-70
2021/11/02 01:20:40;;;;;;;0.40;0.30;;;10.00;99.90;;;;;;5069709;28;20732;-71
2021/11/02 01:23:06;;;;;;;0.40;0.20;;;9.90;99.90;;;;;;5070358;28;20473;-70
2021/11/02 01:25:32;;;;;;;0.40;0.20;;;9.90;99.90;;;;;;5069720;28;20437;-71
2021/11/02 01:27:57;;;;;;;0.40;0.20;;;9.90;99.90;;;;;;5070122;28;20404;-71
2021/11/02 01:30:23;;;;;;;0.40;0.20;;;9.80;99.90;;;;;;5069695;28;20463;-71
2021/11/02 01:32:49;;;;;;;0.40;0.20;;;9.80;99.90;;;;;;5070192;28;20403;-70
2021/11/02 01:35:15;;;;;;;0.40;0.20;;;9.70;99.90;;;;;;5070174;28;20434;-70
2021/11/02 01:37:41;;;;;;;0.40;0.20;;;9.90;99.90;;;;;;5069445;28;20395;-69
2021/11/02 01:40:13;;;;;;;0.40;0.20;;;9.80;99.90;;;;;;5070027;28;20496;-70
2021/11/02 01:42:40;;;;;;;0.40;0.20;;;9.90;99.90;;;;;;5084985;28;20791;-71
2021/11/02 01:45:08;;;;;;;0.40;0.20;;;9.90;99.90;;;;;;5073474;28;20376;-69
2021/11/02 01:47:35;;;;;;;0.40;0.20;;;9.90;99.90;;;;;;5073077;28;20441;-70
2021/11/02 01:50:03;;;;;;;0.40;0.20;;;9.90;99.90;;;;;;5073798;28;20557;-70
2021/11/02 01:52:29;;;;;;;0.40;0.30;;;9.90;99.90;;;;;;5072956;28;20757;-69
2021/11/02 01:54:55;;;;;;;0.40;0.20;;;9.90;99.90;;;;;;5073669;28;20471;-71
2021/11/02 01:57:20;;;;;;;0.40;0.20;;;10.10;99.90;;;;;;5073196;28;20391;-70
2021/11/02 01:59:47;;;;;;;0.40;0.20;;;10.10;99.90;;;;;;5073036;28;20805;-71
2021/11/02 02:02:25;;;;;;;0.40;0.30;;;10.10;99.90;;;;;;5073542;28;20820;-70
2021/11/02 02:05:07;;;;;;;0.40;0.20;;;10.20;99.90;;;;;;5073276;28;20939;-71
2021/11/02 02:07:39;;;;;;;0.40;0.20;;;10.10;99.90;;;;;;5072759;28;20779;-70
2021/11/02 02:10:32;;;;;;;0.40;0.20;;;10.10;99.90;;;;;;5073215;28;20384;-70
2021/11/02 02:13:25;;;;;;;0.40;0.20;;;10.20;99.90;;;;;;5073283;28;20502;-71
2021/11/02 02:16:00;;;;;;;0.40;0.20;;;10.20;99.90;;;;;;5073087;28;20407;-71
2021/11/02 02:18:42;;;;;;;0.40;0.20;;;10.10;99.90;;;;;;5072257;28;20380;-71
2021/11/02 02:21:33;;;;;;;0.40;0.20;;;10.10;99.90;;;;;;5073573;28;20376;-71
2021/11/02 02:24:31;;;;;;;0.40;0.20;;;10.00;99.90;;;;;;5072946;28;20388;-70
2021/11/02 02:27:21;;;;;;;0.40;0.20;;;10.00;99.90;;;;;;5073040;28;20421;-70
2021/11/02 02:29:48;;;;;;;0.40;0.20;;;10.10;99.90;;;;;;5072415;28;20376;-68
2021/11/02 02:32:19;;;;;;;0.40;0.20;;;10.10;99.90;;;;;;5072730;28;20788;-70
2021/11/02 02:34:49;;;;;;;0.40;0.20;;;10.10;99.90;;;;;;5072103;28;20802;-70
2021/11/02 02:37:19;;;;;;;0.40;0.30;;;10.10;99.90;;;;;;5073240;28;20383;-70
2021/11/02 02:39:46;;;;;;;0.40;0.20;;;10.10;99.90;;;;;;5072271;28;20380;-71
2021/11/02 02:42:14;;;;;;;0.40;0.30;;;9.80;99.90;;;;;;5072869;28;20380;-71
2021/11/02 02:44:41;;;;;;;0.40;0.20;;;10.00;99.90;;;;;;5071732;28;20824;-71
2021/11/02 02:47:08;;;;;;;0.40;0.20;;;10.00;99.90;;;;;;5077073;28;20409;-71
2021/11/02 02:49:34;;;;;;;0.40;0.20;;;10.10;99.90;;;;;;5091035;28;20715;-70
2021/11/02 02:52:01;;;;;;;0.40;0.20;;;10.10;99.90;;;;;;5092430;28;20426;-71
2021/11/02 02:54:28;;;;;;;0.40;0.20;;;10.20;99.90;;;;;;5092025;28;20714;-71
2021/11/02 02:56:54;;;;;;;0.40;0.20;;;10.10;99.90;;;;;;5092389;28;20746;-67
2021/11/02 02:59:22;;;;;;;0.40;0.20;;;10.20;99.90;;;;;;5092644;28;20393;-69
2021/11/02 03:01:51;;;;;;;0.40;0.20;;;10.20;99.90;;;;;;5092022;28;20406;-70
2021/11/02 03:04:21;;;;;;;0.40;0.30;;;10.10;99.90;;;;;;5092172;28;20472;-70
2021/11/02 03:06:51;;;;;;;0.40;0.20;;;10.10;99.90;;;;;;5092068;28;20428;-69
2021/11/02 03:09:17;;;;;;;0.40;0.20;;;10.10;99.90;;;;;;5091013;28;20401;-70
2021/11/02 03:11:44;;;;;;;0.40;0.20;;;10.00;99.90;;;;;;5091499;28;20374;-70
2021/11/02 03:14:14;;;;;;;0.40;0.20;;;10.00;99.90;;;;;;5092292;28;20427;-70
2021/11/02 03:49:34;;;;;;;0.40;0.30;;;9.90;99.90;;;;;;5091661;28;20382;-71
2021/11/02 03:54:50;;;;;;;0.40;0.20;;;9.80;99.90;;;;;;5090937;28;20903;-71
2021/11/02 04:28:04;;;;;;;0.40;0.20;;;10.00;99.90;;;;;;5078198;28;20385;-69
2021/11/02 04:30:55;;;;;;;0.40;0.20;;;10.00;99.90;;;;;;5091115;28;20386;-70
2021/11/02 05:08:50;;;;;;;0.40;0.20;;;9.80;99.90;;;;;;5091036;28;20374;-70
2021/11/02 05:58:32;;;;;;;0.40;0.20;;;8.60;99.90;;;;;;5094370;28;20732;-70
2021/11/02 06:06:06;;;;;;;0.40;0.20;;;8.40;99.90;;;;;;5093648;28;20378;-70
2021/11/02 06:28:32;;;;;;;0.40;0.20;;;9.00;99.90;;;;;;5093630;28;20449;-70
2021/11/02 06:31:13;;;;;;;0.40;0.20;;;8.90;99.90;;;;;;5092833;28;20661;-70
2021/11/02 06:44:49;;;;;;;0.40;0.30;;;9.00;99.90;;;;;;5093424;28;20801;-70
2021/11/02 06:47:36;;;;;;;0.40;0.30;;;9.00;99.90;;;;;;5093427;28;20413;-70
2021/11/02 07:15:39;;;;;;;0.40;0.20;;;9.10;99.90;;;;;;5092953;28;20432;-71
2021/11/02 08:48:52;;;;;;;0.40;0.20;;;9.40;99.90;;;;;;5090728;28;20963;-72
2021/11/02 08:51:18;;;;;;;0.40;0.20;;;9.30;99.90;;;;;;5091166;28;20508;-70
2021/11/02 08:53:45;;;;;;;0.40;0.20;;;9.40;99.90;;;;;;5090663;28;20949;-70
2021/11/02 08:56:15;;;;;;;0.40;0.20;;;9.50;99.90;;;;;;5091206;28;20378;-69
2021/11/02 08:58:45;;;;;;;0.40;0.20;;;9.70;99.90;;;;;;5091077;28;20556;-70
2021/11/02 09:01:12;;;;;;;0.40;0.30;;;10.00;99.90;;;;;;5090752;28;20457;-71
2021/11/02 09:03:44;;;;;;;0.40;0.20;;;10.10;99.90;;;;;;5091247;28;20869;-70
2021/11/02 09:06:13;;;;;;;0.40;0.20;;;10.20;99.90;;;;;;5077622;28;20372;-70
2021/11/02 09:08:41;;;;;;;0.40;0.30;;;10.40;99.90;;;;;;5104007;28;20860;-70
2021/11/02 09:11:07;;;;;;;0.40;0.20;;;10.20;99.90;;;;;;5104340;28;20389;-71
2021/11/02 09:13:35;;;;;;;0.40;0.20;;;10.20;99.90;;;;;;5093906;28;20496;-71
2021/11/02 09:16:02;;;;;;;0.40;0.20;;;10.20;99.90;;;;;;5105628;28;20386;-70
2021/11/02 09:18:29;;;;;;;0.40;0.20;;;10.10;99.90;;;;;;5098566;28;20412;-70
2021/11/02 09:20:56;;;;;;;0.40;0.20;;;10.20;99.90;;;;;;5098038;28;20374;-69
2021/11/02 09:23:22;;;;;;;0.40;0.20;;;10.20;99.90;;;;;;5105805;28;20733;-69
2021/11/02 09:25:51;;;;;;;0.40;0.20;;;10.30;99.90;;;;;;5093702;28;20373;-71
2021/11/02 09:28:18;;;;;;;0.40;0.20;;;10.30;99.90;;;;;;5104078;28;20378;-69
2021/11/02 09:30:45;;;;;;;0.40;0.20;;;10.30;99.90;;;;;;5100708;28;20415;-69
2021/11/02 09:33:11;;;;;;;0.40;0.20;;;10.20;99.90;;;;;;5095671;28;20414;-70
2021/11/02 09:35:37;;;;;;;0.40;0.20;;;10.30;99.90;;;;;;5107530;28;20388;-70
2021/11/02 09:38:46;;;;;;;0.60;0.60;;;10.40;99.90;;;;;;5094265;28;20378;-69
2021/11/02 09:41:45;;;;;;;0.40;0.20;;;10.30;99.90;;;;;;5027540;28;20484;-69
2021/11/02 09:44:28;;;;;;;0.40;0.20;;;10.40;99.90;;;;;;5091973;28;20386;-69
2021/11/02 09:47:17;;;;;;;0.40;0.30;;;10.40;99.90;;;;;;5088639;28;20442;-69
2021/11/02 09:50:05;;;;;;;0.40;0.20;;;10.40;99.90;;;;;;5090652;28;20436;-69
2021/11/02 09:53:08;;;;;;;0.40;0.20;;;10.40;99.90;;;;;;5090316;28;20439;-69
2021/11/02 09:55:43;;;;;;;0.40;0.20;;;10.60;99.90;;;;;;5090113;28;20638;-68
2021/11/02 09:58:46;;;;;;;0.40;0.20;;;10.60;99.90;;;;;;5089319;28;20382;-69
2021/11/02 10:01:36;;;;;;;0.40;0.20;;;10.70;99.90;;;;;;5088272;28;20397;-70
2021/11/02 10:04:07;;;;;;;0.40;0.25;;;10.80;99.90;;;;;;5090141;28;20383;-67
2021/11/02 10:06:54;;;;;;;0.40;0.20;;;11.00;99.90;;;;;;5093442;28;20686;-69
2021/11/02 10:09:38;;;;;;;0.50;0.40;;;11.00;99.90;;;;;;5093676;28;20378;-68
2021/11/02 10:12:21;;;;;;;0.40;0.20;;;11.10;99.90;;;;;;5092537;28;20371;-67
2021/11/02 10:14:59;;;;;;;0.40;0.20;;;10.80;99.90;;;;;;5093767;28;20378;-69
2021/11/02 10:17:44;;;;;;;0.40;0.20;;;10.70;99.90;;;;;;5093451;28;20426;-70
2021/11/02 10:20:50;;;;;;;0.40;0.20;;;10.70;99.90;;;;;;5093001;28;20416;-69
2021/11/02 10:23:21;;;;;;;0.40;0.20;;;10.60;99.90;;;;;;5093606;28;20385;-70
2021/11/02 10:26:08;;;;;;;0.40;0.20;;;10.60;99.90;;;;;;5093916;28;20378;-69
2021/11/02 10:29:12;;;;;;;0.40;0.20;;;10.80;99.90;;;;;;5093901;28;20385;-69
2021/11/02 10:31:56;;;;;;;0.40;0.30;;;10.90;99.90;;;;;;5093492;28;20451;-69
2021/11/02 10:34:37;;;;;;;0.40;0.20;;;11.10;99.90;;;;;;5093348;28;20742;-70
2021/11/02 10:37:26;;;;;;;0.40;0.30;;;11.40;99.90;;;;;;5091958;28;20746;-68
2021/11/02 10:40:27;;;;;;;0.40;0.20;;;11.40;99.90;;;;;;5091825;28;20741;-71
2021/11/02 10:43:10;;;;;;;0.40;0.30;;;11.30;99.90;;;;;;5092735;28;20471;-69
2021/11/02 10:45:43;;;;;;;0.40;0.20;;;11.50;99.90;;;;;;5093233;28;20425;-68
2021/11/02 10:48:11;;;;;;;0.40;0.20;;;11.50;99.90;;;;;;5092582;28;20417;-70
2021/11/02 10:51:02;;;;;;;0.40;0.30;;;11.30;99.90;;;;;;5093440;28;20383;-69
2021/11/02 10:53:38;;;;;;;0.40;0.20;;;11.10;99.90;;;;;;5093502;28;20463;-68
2021/11/02 10:56:34;;;;;;;0.40;0.30;;;10.90;99.90;;;;;;5092872;28;20379;-70
2021/11/02 10:59:05;;;;;;;0.40;0.20;;;10.60;99.90;;;;;;5092622;28;20381;-69
2021/11/02 11:01:34;;;;;;;0.40;0.20;;;10.70;99.90;;;;;;5093802;28;20397;-68
2021/11/02 11:04:03;;;;;;;0.40;0.20;;;10.70;99.90;;;;;;5092770;28;20417;-70
2021/11/02 11:06:34;;;;;;;0.40;0.20;;;10.80;99.90;;;;;;5093026;28;20370;-68
2021/11/02 11:09:01;;;;;;;0.40;0.20;;;10.70;99.90;;;;;;5092543;28;20398;-68
2021/11/02 11:11:30;;;;;;;0.40;0.20;;;10.40;99.90;;;;;;5093141;28;20523;-68
2021/11/02 11:14:07;;;;;;;0.40;0.20;;;9.90;99.90;;;;;;5092110;28;20422;-69
2021/11/02 11:16:36;;;;;;;0.40;0.20;;;9.60;99.90;;;;;;5092508;28;20455;-69
2021/11/02 11:19:27;;;;;;;0.40;0.30;;;9.40;99.90;;;;;;5092075;28;20374;-70
2021/11/02 11:21:54;;;;;;;0.40;0.20;;;9.30;99.90;;;;;;5092892;28;20375;-69
2021/11/02 11:24:28;;;;;;;0.40;0.20;;;9.20;99.90;;;;;;5092306;28;20866;-67
2021/11/02 11:27:02;;;;;;;0.40;0.30;;;9.20;99.90;;;;;;5092745;28;20374;-70
2021/11/02 11:29:29;;;;;;;0.40;0.20;;;9.20;99.90;;;;;;5092648;28;20382;-68
2021/11/02 11:32:00;;;;;;;0.40;0.20;;;9.20;99.90;;;;;;5092111;28;20719;-70
2021/11/02 11:34:32;;;;;;;0.40;0.20;;;9.30;99.90;;;;;;5092606;28;20383;-68
2021/11/02 11:37:00;;;;;;;0.40;0.20;;;9.60;99.90;;;;;;5091830;28;20448;-68
2021/11/02 11:39:31;;;;;;;0.40;0.20;;;9.80;99.90;;;;;;5092603;28;20721;-68
2021/11/02 11:41:58;;;;;;;0.40;0.20;;;9.70;99.90;;;;;;5091966;28;20460;-69
2021/11/02 11:44:25;;;;;;;0.40;0.30;;;9.50;99.90;;;;;;5092328;28;20367;-68
2021/11/02 11:47:02;;;;;;;0.40;0.20;;;9.40;99.90;;;;;;5091872;28;20416;-69
2021/11/02 11:49:28;;;;;;;0.40;0.20;;;9.40;99.90;;;;;;5092007;28;20843;-70
2021/11/02 11:51:58;;;;;;;0.40;0.20;;;9.30;99.90;;;;;;5091918;28;20947;-68
2021/11/02 11:54:41;;;;;;;0.40;0.28;;;9.20;99.90;;;;;;5092022;28;20382;-69
2021/11/02 11:57:08;;;;;;;0.40;0.20;;;9.30;99.90;;;;;;5091944;28;20461;-69
2021/11/02 11:59:35;;;;;;;0.40;0.20;;;9.20;99.90;;;;;;5091981;28;20976;-69
2021/11/02 12:02:20;;;;;;;0.40;0.30;;;9.30;99.90;;;;;;5091209;28;20889;-69
2021/11/02 12:04:51;;;;;;;0.40;0.20;;;9.20;99.90;;;;;;5092416;28;20386;-68
2021/11/02 12:07:41;;;;;;;0.40;0.30;;;9.30;99.90;;;;;;5091319;28;20378;-70
2021/11/02 12:10:10;;;;;;;0.40;0.20;;;9.30;99.90;;;;;;5090379;28;20378;-71
2021/11/02 12:12:39;;;;;;;0.40;0.28;;;9.30;99.90;;;;;;5091481;28;20404;-70
2021/11/02 12:15:10;;;;;;;0.40;0.30;;;10.40;99.90;;;;;;5090702;28;20390;-71
2021/11/02 12:17:43;;;;;;;0.40;0.20;;;10.10;99.90;;;;;;5091691;28;20461;-71
2021/11/02 12:20:12;;;;;;;0.40;0.30;;;9.90;99.90;;;;;;5090930;28;20885;-70
2021/11/02 12:22:51;;;;;;;0.40;0.30;;;10.10;99.90;;;;;;5090245;28;20910;-70
2021/11/02 12:25:24;;;;;;;0.40;0.20;;;10.00;99.90;;;;;;5089401;28;20684;-70
2021/11/02 12:27:50;;;;;;;0.40;0.20;;;10.00;99.90;;;;;;5091030;28;20382;-70
2021/11/02 12:30:20;;;;;;;0.40;0.20;;;9.80;99.90;;;;;;5090806;28;20383;-70
2021/11/02 12:32:51;;;;;;;0.40;0.20;;;9.80;99.90;;;;;;5091548;28;20418;-69
2021/11/02 12:35:25;;;;;;;0.40;0.20;;;9.80;99.90;;;;;;5090734;28;20481;-70
2021/11/02 12:37:59;;;;;;;0.40;0.20;;;9.90;99.90;;;;;;5091555;28;20381;-70
2021/11/02 12:40:26;;;;;;;0.40;0.20;;;9.80;99.90;;;;;;5091294;28;20383;-69
2021/11/02 12:42:52;;;;;;;0.40;0.20;;;9.90;99.90;;;;;;5091291;28;20465;-69
2021/11/02 12:45:24;;;;;;;1.00;0.80;;;9.80;99.90;;;;;;5090397;28;20779;-69
2021/11/02 12:47:54;;;;;;;0.40;0.30;;;9.80;99.90;;;;;;5091093;28;20390;-69
2021/11/02 12:50:25;;;;;;;0.50;0.50;;;10.00;99.90;;;;;;5090748;28;20418;-69
2021/11/02 12:52:51;;;;;;;0.40;0.20;;;10.00;99.90;;;;;;5091171;28;20468;-70
2021/11/02 12:55:24;;;;;;;0.40;0.20;;;10.50;99.90;;;;;;5090334;28;20410;-70
2021/11/02 12:57:59;;;;;;;0.40;0.20;;;11.50;99.90;;;;;;5089736;28;20732;-70
2021/11/02 13:00:28;;;;;;;0.40;0.20;;;11.60;99.90;;;;;;5090926;28;20382;-70
2021/11/02 13:02:58;;;;;;;0.40;0.20;;;11.90;99.90;;;;;;5090924;28;20389;-69
2021/11/02 13:05:30;;;;;;;0.40;0.20;;;12.50;99.90;;;;;;5088614;28;20488;-70
2021/11/02 13:08:12;;;;;;;0.40;0.30;;;13.80;99.90;;;;;;5090982;28;20414;-69
2021/11/02 13:10:39;;;;;;;0.40;0.20;;;14.20;99.90;;;;;;5090865;28;20389;-70
2021/11/02 13:13:11;;;;;;;0.40;0.20;;;14.00;99.90;;;;;;5088694;28;20982;-70
2021/11/02 13:15:57;;;;;;;0.40;0.20;;;13.00;99.90;;;;;;5090355;28;20538;-68
2021/11/02 13:18:31;;;;;;;0.40;0.30;;;12.00;99.90;;;;;;5090248;28;20389;-69
2021/11/02 13:21:19;;;;;;;0.40;0.20;;;11.60;99.90;;;;;;5090646;28;20544;-69
2021/11/02 13:23:52;;;;;;;0.40;0.20;;;11.30;99.90;;;;;;5090092;28;20389;-68
2021/11/02 13:26:21;;;;;;;0.40;0.20;;;11.20;99.90;;;;;;5090025;28;20527;-69
2021/11/02 13:28:49;;;;;;;0.40;0.30;;;11.30;99.90;;;;;;5089532;28;20901;-69
2021/11/02 13:31:26;;;;;;;0.40;0.20;;;11.10;99.90;;;;;;5089772;28;20370;-69
2021/11/02 13:34:00;;;;;;;0.40;0.30;;;11.00;99.90;;;;;;5090586;28;20401;-69
2021/11/02 13:36:26;;;;;;;0.40;0.20;;;11.00;99.90;;;;;;5090057;28;20374;-70
2021/11/02 13:39:12;;;;;;;0.40;0.20;;;10.90;99.90;;;;;;5090435;28;20720;-69
2021/11/02 13:41:48;;;;;;;0.40;0.20;;;10.80;99.90;;;;;;5094552;28;20431;-69
2021/11/02 13:44:15;;;;;;;0.40;0.20;;;10.70;99.90;;;;;;5093870;28;20482;-70
2021/11/02 13:46:49;;;;;;;0.40;0.30;;;10.60;99.90;;;;;;5094326;28;20746;-71
2021/11/02 13:49:17;;;;;;;0.40;0.20;;;10.30;99.90;;;;;;5093774;28;20490;-68
2021/11/02 13:51:43;;;;;;;0.40;0.20;;;9.90;99.90;;;;;;5094022;28;20402;-71
2021/11/02 13:54:10;;;;;;;0.40;0.20;;;10.00;99.90;;;;;;5093724;28;20405;-72
2021/11/02 13:56:38;;;;;;;0.40;0.20;;;10.10;99.90;;;;;;5093924;28;20797;-72
2021/11/02 13:59:06;;;;;;;0.40;0.25;;;10.20;99.90;;;;;;5093640;28;20379;-72
2021/11/02 14:01:45;;;;;;;0.40;0.20;;;10.10;99.90;;;;;;5093976;28;20888;-72
2021/11/02 14:04:39;;;;;;;0.40;0.20;;;10.20;99.90;;;;;;5093649;28;20389;-71
2021/11/02 14:07:07;;;;;;;0.40;0.20;;;10.20;99.90;;;;;;5093492;28;20374;-72
2021/11/02 14:09:37;;;;;;;0.40;0.20;;;10.20;99.90;;;;;;5094032;28;20799;-70
2021/11/02 14:12:20;;;;;;;0.40;0.20;;;10.10;99.90;;;;;;5093734;28;20459;-69
2021/11/02 14:14:45;;;;;;;0.40;0.20;;;9.90;99.90;;;;;;5093822;28;20370;-70
2021/11/02 14:17:21;;;;;;;0.40;0.20;;;10.00;99.90;;;;;;5093479;28;20508;-70
2021/11/02 14:19:51;;;;;;;0.40;0.20;;;10.10;99.90;;;;;;5093772;28;20420;-71
2021/11/02 14:22:49;;;;;;;0.40;0.20;;;10.10;99.90;;;;;;5093044;28;20383;-71
2021/11/02 14:25:16;;;;;;;0.40;0.30;;;10.00;99.90;;;;;;5090486;28;20500;-72
2021/11/02 14:27:43;;;;;;;0.40;0.30;;;9.70;99.90;;;;;;5093626;28;20378;-70
2021/11/02 14:30:20;;;;;;;0.40;0.30;;;9.50;99.90;;;;;;5093070;28;20458;-73
2021/11/02 14:32:52;;;;;;;0.40;0.30;;;9.40;99.90;;;;;;5093219;28;20751;-73
2021/11/02 14:35:38;;;;;;;0.40;0.20;;;9.40;99.90;;;;;;5093041;28;20803;-73
2021/11/02 14:38:08;;;;;;;0.40;0.20;;;9.50;99.90;;;;;;5093549;28;20389;-72
2021/11/02 14:40:39;;;;;;;0.40;0.20;;;9.50;99.90;;;;;;5093363;28;20371;-72
2021/11/02 14:43:14;;;;;;;0.40;0.20;;;9.60;99.90;;;;;;5093389;28;20385;-70
2021/11/02 14:45:44;;;;;;;0.40;0.20;;;9.70;99.90;;;;;;5092978;28;20535;-72
2021/11/02 14:48:38;;;;;;;0.40;0.20;;;9.60;99.90;;;;;;5092618;28;20455;-70
2021/11/02 14:51:13;;;;;;;0.40;0.20;;;9.40;99.90;;;;;;5092747;28;20444;-71
2021/11/02 14:53:40;;;;;;;0.40;0.20;;;9.30;99.90;;;;;;5092863;28;20487;-70
2021/11/02 14:56:07;;;;;;;0.40;0.20;;;9.40;99.90;;;;;;5093035;28;20485;-72
2021/11/02 14:58:44;;;;;;;0.40;0.30;;;9.40;99.90;;;;;;5092997;28;20390;-72
2021/11/02 15:01:20;;;;;;;0.40;0.20;;;9.40;99.90;;;;;;5092382;28;20688;-72
2021/11/02 15:03:52;;;;;;;0.43;0.30;;;9.30;99.90;;;;;;5093424;28;20730;-72
2021/11/02 15:06:19;;;;;;;0.40;0.20;;;9.40;99.90;;;;;;5092196;28;20417;-69
2021/11/02 15:08:46;;;;;;;0.40;0.20;;;9.40;99.90;;;;;;5092816;28;20382;-70
2021/11/02 15:11:15;;;;;;;0.40;0.38;;;9.30;99.90;;;;;;5091864;28;20382;-71
2021/11/02 15:13:51;;;;;;;0.40;0.20;;;9.30;99.90;;;;;;5092699;28;20409;-70
2021/11/02 15:16:18;;;;;;;0.40;0.20;;;9.20;99.90;;;;;;5091980;28;20481;-72
2021/11/02 15:18:46;;;;;;;0.40;0.20;;;9.10;99.90;;;;;;5092792;28;20443;-71
2021/11/02 15:21:21;;;;;;;0.40;0.20;;;9.10;99.90;;;;;;5091835;28;20374;-72
2021/11/02 15:23:49;;;;;;;0.40;0.20;;;9.00;99.90;;;;;;5092667;28;20390;-71
2021/11/02 15:26:16;;;;;;;0.40;0.20;;;9.00;99.90;;;;;;5091834;28;20374;-71
2021/11/02 15:28:45;;;;;;;0.40;0.20;;;8.80;99.90;;;;;;5092345;28;20462;-71
2021/11/02 15:31:13;;;;;;;0.40;0.20;;;9.00;99.90;;;;;;5091746;28;20465;-72
2021/11/02 15:33:42;;;;;;;0.40;0.20;;;8.80;99.90;;;;;;5092329;28;20762;-72
2021/11/02 15:36:22;;;;;;;0.40;0.20;;;9.00;99.90;;;;;;5092421;28;20527;-71
2021/11/02 15:39:06;;;;;;;0.40;0.20;;;8.90;99.90;;;;;;5092330;28;20850;-71
2021/11/02 15:41:33;;;;;;;0.40;0.30;;;9.10;99.90;;;;;;5091296;28;20378;-71
2021/11/02 15:44:05;;;;;;;0.40;0.20;;;9.10;99.90;;;;;;5092162;28;20382;-72
2021/11/02 15:46:40;;;;;;;0.40;0.20;;;9.10;99.90;;;;;;5090860;28;20393;-72
2021/11/02 15:49:08;;;;;;;0.40;0.30;;;9.00;99.90;;;;;;5071974;28;20778;-72
2021/11/02 15:51:50;;;;;;;0.40;0.20;;;9.10;99.90;;;;;;5070998;28;20392;-72
2021/11/02 15:54:16;;;;;;;0.40;0.20;;;9.20;99.90;;;;;;5070854;28;20426;-72
2021/11/02 15:56:42;;;;;;;0.40;0.20;;;9.10;99.90;;;;;;5070300;28;20387;-71
2021/11/02 15:59:10;;;;;;;0.40;0.20;;;8.90;99.90;;;;;;5071892;28;20461;-72
2021/11/02 16:01:43;;;;;;;0.40;0.20;;;8.80;99.90;;;;;;5070986;28;20655;-71
2021/11/02 16:04:14;;;;;;;0.40;0.20;;;8.80;99.90;;;;;;5071504;28;20396;-71
2021/11/02 16:07:05;;;;;;;0.40;0.20;;;8.80;99.90;;;;;;5070273;28;20383;-71
2021/11/02 16:09:55;;;;;;;0.40;0.20;;;8.50;99.90;;;;;;5070807;28;20640;-71
2021/11/02 16:12:30;;;;;;;0.40;0.20;;;8.40;99.90;;;;;;5070700;28;20508;-71
2021/11/02 16:14:58;;;;;;;0.40;0.20;;;8.40;99.90;;;;;;5070936;28;20803;-71
2021/11/02 16:17:25;;;;;;;0.40;0.20;;;8.40;99.90;;;;;;5070480;28;20391;-71
2021/11/02 16:19:54;;;;;;;0.40;0.20;;;8.40;99.90;;;;;;5079953;28;20397;-71
2021/11/02 16:22:21;;;;;;;0.40;0.20;;;8.30;99.90;;;;;;5082131;28;20469;-71
2021/11/02 16:25:04;;;;;;;0.40;0.20;;;8.30;99.90;;;;;;5085205;28;20372;-70
2021/11/02 16:27:30;;;;;;;0.40;0.20;;;8.30;99.90;;;;;;5076220;28;20386;-71
2021/11/02 16:29:56;;;;;;;0.40;0.20;;;8.40;99.90;;;;;;5091207;28;20819;-70
2021/11/02 16:32:27;;;;;;;0.40;0.20;;;8.50;99.90;;;;;;5090091;28;20823;-70
2021/11/02 16:34:54;;;;;;;0.40;0.20;;;8.50;99.90;;;;;;5090814;28;20443;-70
2021/11/02 16:37:31;;;;;;;0.40;0.20;;;8.50;99.90;;;;;;5090304;28;20436;-70
2021/11/02 16:40:26;;;;;;;0.40;0.20;;;8.60;99.90;;;;;;5090886;28;20382;-70
2021/11/02 16:42:58;;;;;;;0.40;0.20;;;8.60;99.90;;;;;;5090882;28;20732;-70
2021/11/02 16:45:30;;;;;;;0.40;0.20;;;8.60;99.90;;;;;;5089932;28;20401;-70
2021/11/02 16:48:01;;;;;;;0.40;0.25;;;8.60;99.90;;;;;;5090264;28;20384;-70
2021/11/02 16:50:37;;;;;;;0.40;0.20;;;8.70;99.90;;;;;;5090084;28;20377;-70
2021/11/02 16:53:21;;;;;;;0.40;0.20;;;8.70;99.90;;;;;;5090548;28;20519;-70
2021/11/02 16:55:47;;;;;;;0.40;0.20;;;8.60;99.90;;;;;;5088887;28;20378;-70
2021/11/02 16:58:25;;;;;;;0.40;0.20;;;8.70;99.90;;;;;;5089097;28;20468;-70
2021/11/02 17:01:10;;;;;;;0.40;0.20;;;8.60;99.90;;;;;;5086691;28;20789;-70
2021/11/02 17:03:36;;;;;;;0.40;0.20;;;8.60;99.90;;;;;;5087723;28;20396;-69
2021/11/02 17:06:29;;;;;;;0.40;0.20;;;8.60;99.90;;;;;;5087262;28;20396;-69
2021/11/02 17:09:00;;;;;;;0.40;0.25;;;8.50;99.90;;;;;;5085459;28;20369;-70
2021/11/02 17:11:27;;;;;;;1.00;0.70;;;8.30;99.90;;;;;;5089695;28;20385;-71
2021/11/02 17:13:56;;;;;;;0.40;0.30;;;8.20;99.90;;;;;;5092084;28;20869;-71
2021/11/02 17:16:26;;;;;;;0.40;0.20;;;8.00;99.90;;;;;;5093908;28;20397;-71
2021/11/02 17:19:00;;;;;;;0.40;0.20;;;7.90;99.90;;;;;;5091869;28;20400;-69
2021/11/02 17:21:35;;;;;;;0.40;0.20;;;7.90;99.90;;;;;;5093856;28;20389;-69
2021/11/02 17:24:02;;;;;;;0.40;0.20;;;7.90;99.90;;;;;;5092986;28;20378;-69
2021/11/02 17:26:30;;;;;;;0.40;0.30;;;7.80;99.90;;;;;;5093984;28;20378;-70
2021/11/02 17:28:56;;;;;;;0.40;0.20;;;7.80;99.90;;;;;;5093344;28;20374;-70
2021/11/02 17:31:38;;;;;;;0.40;0.30;;;7.80;99.90;;;;;;5093680;28;20865;-70
2021/11/02 17:34:09;;;;;;;0.40;0.20;;;7.80;99.90;;;;;;5093509;28;20406;-70
2021/11/02 17:36:36;;;;;;;0.40;0.30;;;7.80;99.90;;;;;;5090386;28;20370;-70
2021/11/02 17:39:04;;;;;;;0.40;0.30;;;7.70;99.90;;;;;;5088848;28;20388;-70
2021/11/02 17:41:33;;;;;;;0.40;0.20;;;7.60;99.90;;;;;;5087820;28;20403;-69
2021/11/02 17:43:59;;;;;;;0.40;0.20;;;7.70;99.90;;;;;;5091444;28;20382;-70
2021/11/02 17:46:25;;;;;;;0.40;0.30;;;7.60;99.90;;;;;;5093725;28;20401;-70
2021/11/02 17:48:51;;;;;;;0.40;0.20;;;7.50;99.90;;;;;;5094580;28;20379;-70
2021/11/02 17:51:19;;;;;;;0.47;0.33;;;8.10;99.90;;;;;;5094113;28;20734;-70
2021/11/02 17:53:45;;;;;;;0.40;0.20;;;7.80;99.90;;;;;;5094228;28;20486;-71
2021/11/02 17:56:13;;;;;;;0.40;0.30;;;7.60;99.90;;;;;;5093871;28;20453;-69
2021/11/02 17:58:41;;;;;;;0.40;0.30;;;7.50;99.90;;;;;;5093407;28;20595;-69
2021/11/02 18:01:09;;;;;;;0.40;0.30;;;7.50;99.90;;;;;;5093864;28;20404;-70
2021/11/02 18:03:37;;;;;;;0.40;0.30;;;7.40;99.90;;;;;;5093356;28;20397;-70
2021/11/02 18:06:05;;;;;;;0.40;0.30;;;7.40;99.90;;;;;;5102517;28;20476;-70
2021/11/02 18:08:32;;;;;;;0.40;0.20;;;7.20;99.90;;;;;;5104919;28;20747;-70
2021/11/02 18:10:59;;;;;;;0.50;0.50;;;7.30;99.90;;;;;;5095301;28;20413;-70
2021/11/02 18:13:26;;;;;;;0.40;0.30;;;7.40;99.90;;;;;;5094121;28;20498;-71
2021/11/02 18:15:53;;;;;;;0.40;0.30;;;7.40;99.90;;;;;;5095575;28;20424;-71
2021/11/02 18:18:20;;;;;;;0.40;0.30;;;7.40;99.90;;;;;;5096589;28;20463;-72
2021/11/02 18:20:47;;;;;;;0.40;0.20;;;7.30;99.90;;;;;;5095456;28;20805;-70
2021/11/02 18:23:14;;;;;;;0.40;0.25;;;7.30;99.90;;;;;;5095420;28;20477;-70
2021/11/02 18:25:41;;;;;;;0.40;0.20;;;7.20;99.90;;;;;;5093883;28;20780;-70